sensor_id;sensor_type;location;lat;lon;timestamp;pressure;altitude;pressure_sealevel;temperature;humidity
18858;BME280;9558;50.178;8.370;2022-08-27T00:01:43;98088.75;;;20.06;87.90
18858;BME280;9558;50.178;8.370;2022-08-27T00:04:27;98083.97;;;20.02;87.80
18858;BME280;9558;50.178;8.370;2022-08-27T00:06:54;98083.19;;;20.02;87.72
18858;BME280;9558;50.178;8.370;2022-08-27T00:09:20;98073.72;;;20.01;88.41
18858;BME280;9558;50.178;8.370;2022-08-27T00:11:48;98078.16;;;20.00;88.71
18858;BME280;9558;50.178;8.370;2022-08-27T00:14:15;98078.38;;;19.99;88.43
18858;BME280;9558;50.178;8.370;2022-08-27T00:16:42;98074.25;;;20.03;88.43
18858;BME280;9558;50.178;8.370;2022-08-27T00:19:09;98072.69;;;20.02;88.46
18858;BME280;9558;50.178;8.370;2022-08-27T00:21:36;98066.84;;;20.00;88.49
18858;BME280;9558;50.178;8.370;2022-08-27T00:24:03;98068.69;;;19.99;88.90
18858;BME280;9558;50.178;8.370;2022-08-27T00:26:29;98074.97;;;19.98;88.72
18858;BME280;9558;50.178;8.370;2022-08-27T00:28:57;98076.47;;;19.94;89.27
18858;BME280;9558;50.178;8.370;2022-08-27T00:31:24;98072.50;;;19.92;89.26
18858;BME280;9558;50.178;8.370;2022-08-27T00:33:50;98077.19;;;19.90;89.95
18858;BME280;9558;50.178;8.370;2022-08-27T00:36:17;98076.63;;;19.88;89.88
18858;BME280;9558;50.178;8.370;2022-08-27T00:38:44;98073.44;;;19.85;89.26
18858;BME280;9558;50.178;8.370;2022-08-27T00:41:11;98079.72;;;19.84;89.56
18858;BME280;9558;50.178;8.370;2022-08-27T00:43:44;98071.84;;;19.84;89.94
18858;BME280;9558;50.178;8.370;2022-08-27T00:46:17;98065.47;;;19.80;90.15
18858;BME280;9558;50.178;8.370;2022-08-27T00:48:44;98066.53;;;19.79;90.10
18858;BME280;9558;50.178;8.370;2022-08-27T00:51:11;98067.53;;;19.78;91.17
18858;BME280;9558;50.178;8.370;2022-08-27T00:53:38;98067.31;;;19.80;90.94
18858;BME280;9558;50.178;8.370;2022-08-27T00:56:06;98074.41;;;19.79;90.36
18858;BME280;9558;50.178;8.370;2022-08-27T00:58:36;98065.63;;;19.74;90.65
18858;BME280;9558;50.178;8.370;2022-08-27T01:01:05;98071.66;;;19.74;90.83
18858;BME280;9558;50.178;8.370;2022-08-27T01:03:33;98075.00;;;19.69;90.54
18858;BME280;9558;50.178;8.370;2022-08-27T01:06:01;98072.63;;;19.68;90.23
18858;BME280;9558;50.178;8.370;2022-08-27T01:08:33;98069.41;;;19.66;90.80
18858;BME280;9558;50.178;8.370;2022-08-27T01:11:02;98069.19;;;19.67;91.10
18858;BME280;9558;50.178;8.370;2022-08-27T01:13:31;98077.88;;;19.68;90.85
18858;BME280;9558;50.178;8.370;2022-08-27T01:15:58;98075.72;;;19.65;90.96
18858;BME280;9558;50.178;8.370;2022-08-27T01:18:26;98073.34;;;19.63;91.05
18858;BME280;9558;50.178;8.370;2022-08-27T01:20:59;98069.88;;;19.63;91.58
18858;BME280;9558;50.178;8.370;2022-08-27T01:23:36;98064.63;;;19.63;91.36
18858;BME280;9558;50.178;8.370;2022-08-27T01:26:07;98070.72;;;19.63;91.25
18858;BME280;9558;50.178;8.370;2022-08-27T01:28:35;98064.09;;;19.61;91.33
18858;BME280;9558;50.178;8.370;2022-08-27T01:31:03;98069.59;;;19.59;91.54
18858;BME280;9558;50.178;8.370;2022-08-27T01:33:31;98072.44;;;19.58;91.62
18858;BME280;9558;50.178;8.370;2022-08-27T01:35:57;98071.63;;;19.57;92.78
18858;BME280;9558;50.178;8.370;2022-08-27T01:38:24;98072.22;;;19.59;91.81
18858;BME280;9558;50.178;8.370;2022-08-27T01:40:51;98068.75;;;19.59;91.72
18858;BME280;9558;50.178;8.370;2022-08-27T01:43:19;98078.47;;;19.58;91.55
18858;BME280;9558;50.178;8.370;2022-08-27T01:45:47;98074.03;;;19.59;91.83
18858;BME280;9558;50.178;8.370;2022-08-27T01:48:15;98074.59;;;19.61;92.27
18858;BME280;9558;50.178;8.370;2022-08-27T01:50:43;98074.84;;;19.59;92.44
18858;BME280;9558;50.178;8.370;2022-08-27T01:53:12;98077.69;;;19.58;92.59
18858;BME280;9558;50.178;8.370;2022-08-27T01:55:41;98071.97;;;19.61;92.19
18858;BME280;9558;50.178;8.370;2022-08-27T01:58:08;98071.31;;;19.54;93.53
18858;BME280;9558;50.178;8.370;2022-08-27T02:00:40;98068.47;;;19.55;92.15
18858;BME280;9558;50.178;8.370;2022-08-27T02:03:10;98067.63;;;19.55;92.26
18858;BME280;9558;50.178;8.370;2022-08-27T02:05:37;98064.47;;;19.52;92.01
18858;BME280;9558;50.178;8.370;2022-08-27T02:08:05;98070.44;;;19.48;92.60
18858;BME280;9558;50.178;8.370;2022-08-27T02:10:34;98060.16;;;19.46;92.24
18858;BME280;9558;50.178;8.370;2022-08-27T02:13:02;98058.34;;;19.47;92.14
18858;BME280;9558;50.178;8.370;2022-08-27T02:15:31;98056.97;;;19.44;92.06
18858;BME280;9558;50.178;8.370;2022-08-27T02:18:00;98064.28;;;19.42;92.42
18858;BME280;9558;50.178;8.370;2022-08-27T02:20:27;98054.81;;;19.41;92.20
18858;BME280;9558;50.178;8.370;2022-08-27T02:22:54;98052.19;;;19.41;92.74
18858;BME280;9558;50.178;8.370;2022-08-27T02:25:20;98051.06;;;19.37;92.58
18858;BME280;9558;50.178;8.370;2022-08-27T02:27:48;98050.75;;;19.33;92.75
18858;BME280;9558;50.178;8.370;2022-08-27T02:30:18;98053.63;;;19.32;92.61
18858;BME280;9558;50.178;8.370;2022-08-27T02:32:46;98050.41;;;19.30;92.65
18858;BME280;9558;50.178;8.370;2022-08-27T02:35:16;98050.88;;;19.27;93.30
18858;BME280;9558;50.178;8.370;2022-08-27T02:37:44;98052.94;;;19.25;93.42
18858;BME280;9558;50.178;8.370;2022-08-27T02:40:12;98049.75;;;19.23;93.23
18858;BME280;9558;50.178;8.370;2022-08-27T02:42:40;98053.41;;;19.22;93.67
18858;BME280;9558;50.178;8.370;2022-08-27T02:45:07;98052.28;;;19.17;93.96
18858;BME280;9558;50.178;8.370;2022-08-27T02:47:34;98054.69;;;19.19;94.68
18858;BME280;9558;50.178;8.370;2022-08-27T02:50:01;98056.44;;;19.13;94.98
18858;BME280;9558;50.178;8.370;2022-08-27T02:52:29;98050.38;;;19.13;95.19
18858;BME280;9558;50.178;8.370;2022-08-27T02:54:56;98061.44;;;19.15;95.00
18858;BME280;9558;50.178;8.370;2022-08-27T02:57:23;98051.72;;;19.15;95.30
18858;BME280;9558;50.178;8.370;2022-08-27T02:59:49;98047.50;;;19.14;95.07
18858;BME280;9558;50.178;8.370;2022-08-27T03:02:16;98037.81;;;19.15;94.94
18858;BME280;9558;50.178;8.370;2022-08-27T03:04:43;98039.75;;;19.20;95.16
18858;BME280;9558;50.178;8.370;2022-08-27T03:07:10;98030.28;;;19.19;95.06
18858;BME280;9558;50.178;8.370;2022-08-27T03:09:38;98041.78;;;19.17;95.93
18858;BME280;9558;50.178;8.370;2022-08-27T03:12:05;98040.53;;;19.20;95.24
18858;BME280;9558;50.178;8.370;2022-08-27T03:14:32;98037.34;;;19.18;94.76
18858;BME280;9558;50.178;8.370;2022-08-27T03:16:59;98046.81;;;19.19;95.09
18858;BME280;9558;50.178;8.370;2022-08-27T03:19:46;98043.38;;;19.19;95.48
18858;BME280;9558;50.178;8.370;2022-08-27T03:22:11;98047.63;;;19.20;95.04
18858;BME280;9558;50.178;8.370;2022-08-27T03:24:40;98042.91;;;19.22;94.69
18858;BME280;9558;50.178;8.370;2022-08-27T03:27:07;98050.22;;;19.20;95.76
18858;BME280;9558;50.178;8.370;2022-08-27T03:29:34;98047.03;;;19.17;94.69
18858;BME280;9558;50.178;8.370;2022-08-27T03:32:01;98052.50;;;19.16;95.41
18858;BME280;9558;50.178;8.370;2022-08-27T03:34:29;98056.63;;;19.12;94.74
18858;BME280;9558;50.178;8.370;2022-08-27T03:36:56;98052.09;;;19.07;94.58
18858;BME280;9558;50.178;8.370;2022-08-27T03:39:24;98053.03;;;19.01;95.30
18858;BME280;9558;50.178;8.370;2022-08-27T03:41:52;98060.66;;;19.03;95.49
18858;BME280;9558;50.178;8.370;2022-08-27T03:44:19;98054.28;;;18.98;95.49
18858;BME280;9558;50.178;8.370;2022-08-27T03:46:46;98057.69;;;18.99;95.56
18858;BME280;9558;50.178;8.370;2022-08-27T03:49:12;98055.06;;;18.99;95.62
18858;BME280;9558;50.178;8.370;2022-08-27T03:51:39;98048.50;;;18.96;95.56
18858;BME280;9558;50.178;8.370;2022-08-27T03:54:05;98046.19;;;19.00;95.63
18858;BME280;9558;50.178;8.370;2022-08-27T03:56:32;98053.59;;;19.03;95.62
18858;BME280;9558;50.178;8.370;2022-08-27T03:59:05;98052.56;;;19.04;95.64
18858;BME280;9558;50.178;8.370;2022-08-27T04:01:31;98051.31;;;19.07;95.69
18858;BME280;9558;50.178;8.370;2022-08-27T04:03:58;98052.66;;;19.09;95.32
18858;BME280;9558;50.178;8.370;2022-08-27T04:06:25;98051.19;;;19.13;95.16
18858;BME280;9558;50.178;8.370;2022-08-27T04:08:52;98053.56;;;19.15;95.29
18858;BME280;9558;50.178;8.370;2022-08-27T04:11:19;98048.63;;;19.19;95.60
18858;BME280;9558;50.178;8.370;2022-08-27T04:13:46;98057.63;;;19.23;95.13
18858;BME280;9558;50.178;8.370;2022-08-27T04:16:14;98056.59;;;19.24;95.41
18858;BME280;9558;50.178;8.370;2022-08-27T04:18:40;98056.13;;;19.27;95.01
18858;BME280;9558;50.178;8.370;2022-08-27T04:21:08;98056.91;;;19.27;95.25
18858;BME280;9558;50.178;8.370;2022-08-27T04:23:35;98059.78;;;19.26;94.90
18858;BME280;9558;50.178;8.370;2022-08-27T04:26:03;98065.03;;;19.26;94.60
18858;BME280;9558;50.178;8.370;2022-08-27T04:28:30;98061.38;;;19.27;94.82
18858;BME280;9558;50.178;8.370;2022-08-27T04:30:57;98063.44;;;19.25;94.78
18858;BME280;9558;50.178;8.370;2022-08-27T04:33:25;98056.59;;;19.24;94.87
18858;BME280;9558;50.178;8.370;2022-08-27T04:35:56;98064.72;;;19.22;95.50
18858;BME280;9558;50.178;8.370;2022-08-27T04:38:23;98070.75;;;19.23;95.38
18858;BME280;9558;50.178;8.370;2022-08-27T04:40:50;98067.00;;;19.19;96.17
18858;BME280;9558;50.178;8.370;2022-08-27T04:43:34;98071.22;;;19.20;95.29
18858;BME280;9558;50.178;8.370;2022-08-27T04:46:01;98069.16;;;19.22;95.14
18858;BME280;9558;50.178;8.370;2022-08-27T04:48:29;98072.34;;;19.24;95.28
18858;BME280;9558;50.178;8.370;2022-08-27T04:50:55;98071.31;;;19.25;95.09
18858;BME280;9558;50.178;8.370;2022-08-27T04:53:22;98068.69;;;19.25;95.07
18858;BME280;9558;50.178;8.370;2022-08-27T04:55:50;98074.16;;;19.23;95.23
18858;BME280;9558;50.178;8.370;2022-08-27T04:58:19;98073.84;;;19.20;95.24
18858;BME280;9558;50.178;8.370;2022-08-27T05:00:49;98073.25;;;19.17;95.75
18858;BME280;9558;50.178;8.370;2022-08-27T05:03:19;98077.50;;;19.19;95.58
18858;BME280;9558;50.178;8.370;2022-08-27T05:05:47;98080.13;;;19.19;95.10
18858;BME280;9558;50.178;8.370;2022-08-27T05:08:13;98084.88;;;19.22;95.17
18858;BME280;9558;50.178;8.370;2022-08-27T05:10:42;98081.25;;;19.23;95.28
18858;BME280;9558;50.178;8.370;2022-08-27T05:13:09;98080.13;;;19.19;95.50
18858;BME280;9558;50.178;8.370;2022-08-27T05:15:36;98088.56;;;19.21;95.27
18858;BME280;9558;50.178;8.370;2022-08-27T05:18:03;98087.97;;;19.19;95.95
18858;BME280;9558;50.178;8.370;2022-08-27T05:20:30;98093.00;;;19.20;95.31
18858;BME280;9558;50.178;8.370;2022-08-27T05:22:58;98092.22;;;19.20;95.86
18858;BME280;9558;50.178;8.370;2022-08-27T05:25:25;98095.84;;;19.19;95.27
18858;BME280;9558;50.178;8.370;2022-08-27T05:27:52;98089.59;;;19.20;95.08
18858;BME280;9558;50.178;8.370;2022-08-27T05:30:18;98088.56;;;19.21;95.60
18858;BME280;9558;50.178;8.370;2022-08-27T05:32:45;98092.75;;;19.22;94.93
18858;BME280;9558;50.178;8.370;2022-08-27T05:35:12;98095.97;;;19.24;94.91
18858;BME280;9558;50.178;8.370;2022-08-27T05:37:38;98087.16;;;19.30;94.91
18858;BME280;9558;50.178;8.370;2022-08-27T05:40:08;98086.38;;;19.29;95.68
18858;BME280;9558;50.178;8.370;2022-08-27T05:42:35;98090.13;;;19.33;95.07
18858;BME280;9558;50.178;8.370;2022-08-27T05:45:01;98100.69;;;19.39;94.67
18858;BME280;9558;50.178;8.370;2022-08-27T05:47:28;98095.44;;;19.39;94.78
18858;BME280;9558;50.178;8.370;2022-08-27T05:49:54;98087.91;;;19.42;94.68
18858;BME280;9558;50.178;8.370;2022-08-27T05:52:21;98092.22;;;19.48;94.24
18858;BME280;9558;50.178;8.370;2022-08-27T05:54:48;98097.00;;;19.51;94.06
18858;BME280;9558;50.178;8.370;2022-08-27T05:57:15;98092.31;;;19.54;93.79
18858;BME280;9558;50.178;8.370;2022-08-27T05:59:42;98088.63;;;19.55;93.66
18858;BME280;9558;50.178;8.370;2022-08-27T06:02:26;98094.22;;;19.58;93.59
18858;BME280;9558;50.178;8.370;2022-08-27T06:04:53;98098.22;;;19.61;93.86
18858;BME280;9558;50.178;8.370;2022-08-27T06:07:19;98093.28;;;19.64;93.32
18858;BME280;9558;50.178;8.370;2022-08-27T06:09:46;98093.03;;;19.66;93.17
18858;BME280;9558;50.178;8.370;2022-08-27T06:12:12;98092.91;;;19.73;93.04
18858;BME280;9558;50.178;8.370;2022-08-27T06:14:40;98092.66;;;19.74;92.95
18858;BME280;9558;50.178;8.370;2022-08-27T06:17:07;98089.56;;;19.77;92.90
18858;BME280;9558;50.178;8.370;2022-08-27T06:19:33;98088.09;;;19.81;92.51
18858;BME280;9558;50.178;8.370;2022-08-27T06:22:00;98091.84;;;19.85;92.59
18858;BME280;9558;50.178;8.370;2022-08-27T06:24:28;98094.22;;;19.87;92.40
18858;BME280;9558;50.178;8.370;2022-08-27T06:26:54;98092.16;;;19.89;92.19
18858;BME280;9558;50.178;8.370;2022-08-27T06:29:21;98095.88;;;19.93;92.11
18858;BME280;9558;50.178;8.370;2022-08-27T06:31:51;98092.25;;;19.94;92.13
18858;BME280;9558;50.178;8.370;2022-08-27T06:34:19;98096.72;;;19.94;92.22
18858;BME280;9558;50.178;8.370;2022-08-27T06:36:45;98096.72;;;19.94;91.83
18858;BME280;9558;50.178;8.370;2022-08-27T06:39:12;98097.25;;;19.96;91.77
18858;BME280;9558;50.178;8.370;2022-08-27T06:41:40;98097.34;;;20.01;91.46
18858;BME280;9558;50.178;8.370;2022-08-27T06:44:08;98096.78;;;19.99;91.43
18858;BME280;9558;50.178;8.370;2022-08-27T06:46:35;98097.09;;;20.02;91.07
18858;BME280;9558;50.178;8.370;2022-08-27T06:49:03;98097.97;;;20.08;91.17
18858;BME280;9558;50.178;8.370;2022-08-27T06:51:32;98098.78;;;20.09;91.30
18858;BME280;9558;50.178;8.370;2022-08-27T06:54:00;98108.78;;;20.12;90.90
18858;BME280;9558;50.178;8.370;2022-08-27T06:56:27;98104.91;;;20.14;91.06
18858;BME280;9558;50.178;8.370;2022-08-27T06:58:55;98117.56;;;20.17;90.97
18858;BME280;9558;50.178;8.370;2022-08-27T07:01:23;98117.31;;;20.19;90.64
18858;BME280;9558;50.178;8.370;2022-08-27T07:03:53;98116.28;;;20.20;90.72
18858;BME280;9558;50.178;8.370;2022-08-27T07:06:21;98114.25;;;20.22;90.67
18858;BME280;9558;50.178;8.370;2022-08-27T07:08:48;98115.56;;;20.25;90.60
18858;BME280;9558;50.178;8.370;2022-08-27T07:11:15;98119.31;;;20.29;90.15
18858;BME280;9558;50.178;8.370;2022-08-27T07:13:42;98111.53;;;20.34;90.16
18858;BME280;9558;50.178;8.370;2022-08-27T07:16:12;98112.16;;;20.41;90.01
18858;BME280;9558;50.178;8.370;2022-08-27T07:18:40;98115.50;;;20.53;89.50
18858;BME280;9558;50.178;8.370;2022-08-27T07:21:08;98119.44;;;20.73;89.44
18858;BME280;9558;50.178;8.370;2022-08-27T07:23:37;98111.06;;;21.15;88.24
18858;BME280;9558;50.178;8.370;2022-08-27T07:26:06;98107.56;;;21.54;86.73
18858;BME280;9558;50.178;8.370;2022-08-27T07:28:32;98111.78;;;21.82;85.58
18858;BME280;9558;50.178;8.370;2022-08-27T07:30:59;98106.16;;;22.06;84.63
18858;BME280;9558;50.178;8.370;2022-08-27T07:33:26;98103.19;;;22.30;83.71
18858;BME280;9558;50.178;8.370;2022-08-27T07:35:52;98110.72;;;22.48;81.89
18858;BME280;9558;50.178;8.370;2022-08-27T07:38:19;98105.81;;;22.67;81.56
18858;BME280;9558;50.178;8.370;2022-08-27T07:40:47;98108.28;;;22.84;80.60
18858;BME280;9558;50.178;8.370;2022-08-27T07:43:13;98109.63;;;22.87;77.64
18858;BME280;9558;50.178;8.370;2022-08-27T07:46:00;98114.16;;;22.97;78.39
18858;BME280;9558;50.178;8.370;2022-08-27T07:48:27;98118.88;;;22.94;78.13
18858;BME280;9558;50.178;8.370;2022-08-27T07:50:55;98122.59;;;22.93;78.06
18858;BME280;9558;50.178;8.370;2022-08-27T07:53:21;98117.81;;;22.90;78.14
18858;BME280;9558;50.178;8.370;2022-08-27T07:55:49;98122.00;;;22.86;77.67
18858;BME280;9558;50.178;8.370;2022-08-27T07:58:16;98121.47;;;22.84;77.54
18858;BME280;9558;50.178;8.370;2022-08-27T08:00:44;98125.66;;;22.80;77.44
18858;BME280;9558;50.178;8.370;2022-08-27T08:03:11;98125.94;;;22.78;77.45
18858;BME280;9558;50.178;8.370;2022-08-27T08:05:40;98118.84;;;22.84;77.58
18858;BME280;9558;50.178;8.370;2022-08-27T08:08:07;98116.25;;;22.94;77.14
18858;BME280;9558;50.178;8.370;2022-08-27T08:10:34;98113.94;;;23.08;77.14
18858;BME280;9558;50.178;8.370;2022-08-27T08:13:03;98109.00;;;23.22;76.58
18858;BME280;9558;50.178;8.370;2022-08-27T08:15:31;98123.81;;;23.39;76.42
18858;BME280;9558;50.178;8.370;2022-08-27T08:17:58;98120.16;;;23.50;75.65
18858;BME280;9558;50.178;8.370;2022-08-27T08:20:25;98130.47;;;23.57;74.85
18858;BME280;9558;50.178;8.370;2022-08-27T08:22:51;98127.59;;;23.63;74.54
18858;BME280;9558;50.178;8.370;2022-08-27T08:25:18;98131.81;;;23.64;74.11
18858;BME280;9558;50.178;8.370;2022-08-27T08:27:45;98130.25;;;23.63;73.68
18858;BME280;9558;50.178;8.370;2022-08-27T08:30:13;98127.06;;;23.61;73.31
18858;BME280;9558;50.178;8.370;2022-08-27T08:32:40;98138.16;;;23.63;73.85
18858;BME280;9558;50.178;8.370;2022-08-27T08:35:08;98136.56;;;23.57;73.01
18858;BME280;9558;50.178;8.370;2022-08-27T08:37:35;98134.72;;;23.58;72.68
18858;BME280;9558;50.178;8.370;2022-08-27T08:40:03;98146.34;;;23.57;73.21
18858;BME280;9558;50.178;8.370;2022-08-27T08:42:37;98146.56;;;23.50;72.56
18858;BME280;9558;50.178;8.370;2022-08-27T08:45:05;98149.50;;;23.54;72.50
18858;BME280;9558;50.178;8.370;2022-08-27T08:47:42;98141.31;;;23.60;72.30
18858;BME280;9558;50.178;8.370;2022-08-27T08:50:13;98155.59;;;23.75;71.92
18858;BME280;9558;50.178;8.370;2022-08-27T08:52:48;98143.75;;;23.88;71.68
18858;BME280;9558;50.178;8.370;2022-08-27T08:55:31;98137.72;;;24.08;71.33
18858;BME280;9558;50.178;8.370;2022-08-27T08:58:12;98145.09;;;24.31;70.47
18858;BME280;9558;50.178;8.370;2022-08-27T09:00:42;98149.84;;;24.50;70.12
18858;BME280;9558;50.178;8.370;2022-08-27T09:03:11;98155.66;;;24.73;69.36
18858;BME280;9558;50.178;8.370;2022-08-27T09:05:41;98151.91;;;24.94;68.22
18858;BME280;9558;50.178;8.370;2022-08-27T09:08:14;98147.88;;;25.12;66.58
18858;BME280;9558;50.178;8.370;2022-08-27T09:10:47;98150.72;;;25.31;66.77
18858;BME280;9558;50.178;8.370;2022-08-27T09:13:21;98145.38;;;25.47;66.10
18858;BME280;9558;50.178;8.370;2022-08-27T09:15:50;98153.72;;;25.69;66.18
18858;BME280;9558;50.178;8.370;2022-08-27T09:18:20;98146.72;;;25.84;65.25
18858;BME280;9558;50.178;8.370;2022-08-27T09:20:49;98149.53;;;25.98;63.82
18858;BME280;9558;50.178;8.370;2022-08-27T09:23:22;98146.59;;;26.04;63.78
18858;BME280;9558;50.178;8.370;2022-08-27T09:25:49;98144.41;;;26.17;63.65
18858;BME280;9558;50.178;8.370;2022-08-27T09:28:22;98144.28;;;26.32;63.29
18858;BME280;9558;50.178;8.370;2022-08-27T09:31:08;98152.16;;;26.37;61.53
18858;BME280;9558;50.178;8.370;2022-08-27T09:33:36;98147.66;;;26.38;61.16
18858;BME280;9558;50.178;8.370;2022-08-27T09:36:07;98153.25;;;26.36;61.42
18858;BME280;9558;50.178;8.370;2022-08-27T09:38:35;98151.09;;;26.38;61.81
18858;BME280;9558;50.178;8.370;2022-08-27T09:41:09;98150.31;;;26.38;61.77
18858;BME280;9558;50.178;8.370;2022-08-27T09:43:38;98156.16;;;26.35;61.34
18858;BME280;9558;50.178;8.370;2022-08-27T09:46:17;98157.06;;;26.25;60.98
18858;BME280;9558;50.178;8.370;2022-08-27T09:48:46;98155.00;;;26.17;61.73
18858;BME280;9558;50.178;8.370;2022-08-27T09:51:16;98162.00;;;26.02;61.56
18858;BME280;9558;50.178;8.370;2022-08-27T09:53:46;98163.63;;;25.93;61.59
18858;BME280;9558;50.178;8.370;2022-08-27T09:56:22;98157.34;;;25.79;61.93
18858;BME280;9558;50.178;8.370;2022-08-27T09:58:53;98160.06;;;25.68;62.51
18858;BME280;9558;50.178;8.370;2022-08-27T10:01:22;98153.50;;;25.61;62.29
18858;BME280;9558;50.178;8.370;2022-08-27T10:04:02;98156.97;;;25.56;62.80
18858;BME280;9558;50.178;8.370;2022-08-27T10:06:30;98155.13;;;25.51;63.41
18858;BME280;9558;50.178;8.370;2022-08-27T10:09:02;98157.56;;;25.43;62.75
18858;BME280;9558;50.178;8.370;2022-08-27T10:11:34;98157.84;;;25.36;63.72
18858;BME280;9558;50.178;8.370;2022-08-27T10:14:05;98161.84;;;25.28;63.44
18858;BME280;9558;50.178;8.370;2022-08-27T10:16:50;98162.94;;;25.17;64.00
18858;BME280;9558;50.178;8.370;2022-08-27T10:19:34;98155.28;;;25.10;63.85
18858;BME280;9558;50.178;8.370;2022-08-27T10:22:10;98156.38;;;25.04;63.74
18858;BME280;9558;50.178;8.370;2022-08-27T10:24:51;98157.97;;;24.95;64.41
18858;BME280;9558;50.178;8.370;2022-08-27T10:27:26;98154.81;;;24.88;64.52
18858;BME280;9558;50.178;8.370;2022-08-27T10:29:59;98161.19;;;24.76;64.37
18858;BME280;9558;50.178;8.370;2022-08-27T10:32:40;98156.75;;;24.66;64.87
18858;BME280;9558;50.178;8.370;2022-08-27T10:35:16;98153.31;;;24.61;65.16
18858;BME280;9558;50.178;8.370;2022-08-27T10:37:47;98154.59;;;24.58;65.14
18858;BME280;9558;50.178;8.370;2022-08-27T10:40:20;98153.31;;;24.61;65.06
18858;BME280;9558;50.178;8.370;2022-08-27T10:42:54;98143.78;;;24.65;65.72
18858;BME280;9558;50.178;8.370;2022-08-27T10:45:34;98154.63;;;24.69;65.67
18858;BME280;9558;50.178;8.370;2022-08-27T10:48:13;98150.38;;;24.73;65.58
18858;BME280;9558;50.178;8.370;2022-08-27T10:50:46;98153.03;;;24.78;65.74
18858;BME280;9558;50.178;8.370;2022-08-27T10:53:18;98155.13;;;24.81;65.62
18858;BME280;9558;50.178;8.370;2022-08-27T10:55:47;98151.94;;;24.84;65.20
18858;BME280;9558;50.178;8.370;2022-08-27T10:58:30;98159.59;;;24.86;64.75
18858;BME280;9558;50.178;8.370;2022-08-27T11:01:11;98160.38;;;24.91;64.22
18858;BME280;9558;50.178;8.370;2022-08-27T11:03:42;98158.81;;;24.85;64.09
18858;BME280;9558;50.178;8.370;2022-08-27T11:06:17;98160.13;;;24.88;64.52
18858;BME280;9558;50.178;8.370;2022-08-27T11:08:49;98155.09;;;24.86;63.36
18858;BME280;9558;50.178;8.370;2022-08-27T11:11:24;98154.53;;;24.94;64.40
18858;BME280;9558;50.178;8.370;2022-08-27T11:13:54;98152.94;;;24.98;64.25
18858;BME280;9558;50.178;8.370;2022-08-27T11:16:26;98161.94;;;24.97;63.92
18858;BME280;9558;50.178;8.370;2022-08-27T11:18:57;98146.88;;;24.98;63.67
18858;BME280;9558;50.178;8.370;2022-08-27T11:21:31;98152.41;;;24.96;62.90
18858;BME280;9558;50.178;8.370;2022-08-27T11:24:11;98151.91;;;24.94;63.13
18858;BME280;9558;50.178;8.370;2022-08-27T11:26:40;98146.09;;;24.92;63.06
18858;BME280;9558;50.178;8.370;2022-08-27T11:29:14;98146.59;;;24.94;63.36
18858;BME280;9558;50.178;8.370;2022-08-27T11:31:49;98146.59;;;24.99;63.54
18858;BME280;9558;50.178;8.370;2022-08-27T11:34:24;98149.72;;;25.12;63.45
18858;BME280;9558;50.178;8.370;2022-08-27T11:37:08;98151.81;;;25.25;62.75
18858;BME280;9558;50.178;8.370;2022-08-27T11:39:52;98148.06;;;25.37;62.42
18858;BME280;9558;50.178;8.370;2022-08-27T11:42:31;98142.16;;;25.50;62.13
18858;BME280;9558;50.178;8.370;2022-08-27T11:45:04;98148.69;;;25.68;62.01
18858;BME280;9558;50.178;8.370;2022-08-27T11:47:31;98153.09;;;25.83;60.72
18858;BME280;9558;50.178;8.370;2022-08-27T11:49:59;98139.25;;;25.91;60.67
18858;BME280;9558;50.178;8.370;2022-08-27T11:52:31;98137.03;;;26.09;60.27
18858;BME280;9558;50.178;8.370;2022-08-27T11:55:12;98136.38;;;26.22;59.85
18858;BME280;9558;50.178;8.370;2022-08-27T11:57:40;98141.06;;;26.35;59.55
18858;BME280;9558;50.178;8.370;2022-08-27T12:00:18;98136.66;;;26.50;59.65
18858;BME280;9558;50.178;8.370;2022-08-27T12:02:56;98143.47;;;26.61;58.42
18858;BME280;9558;50.178;8.370;2022-08-27T12:05:33;98147.38;;;26.69;58.25
18858;BME280;9558;50.178;8.370;2022-08-27T12:08:12;98153.50;;;26.64;57.95
18858;BME280;9558;50.178;8.370;2022-08-27T12:10:51;98147.97;;;26.61;56.57
18858;BME280;9558;50.178;8.370;2022-08-27T12:13:24;98146.41;;;26.60;57.36
18858;BME280;9558;50.178;8.370;2022-08-27T12:16:00;98150.41;;;26.57;57.14
18858;BME280;9558;50.178;8.370;2022-08-27T12:18:42;98145.69;;;26.49;57.66
18858;BME280;9558;50.178;8.370;2022-08-27T12:21:19;98145.22;;;26.42;57.34
18858;BME280;9558;50.178;8.370;2022-08-27T12:24:15;98147.28;;;26.50;57.82
18858;BME280;9558;50.178;8.370;2022-08-27T12:26:55;98146.00;;;26.42;57.58
18858;BME280;9558;50.178;8.370;2022-08-27T12:29:26;98143.09;;;26.44;57.55
18858;BME280;9558;50.178;8.370;2022-08-27T12:32:02;98138.56;;;26.44;58.14
18858;BME280;9558;50.178;8.370;2022-08-27T12:34:39;98140.72;;;26.42;57.66
18858;BME280;9558;50.178;8.370;2022-08-27T12:37:07;98145.00;;;26.38;57.88
18858;BME280;9558;50.178;8.370;2022-08-27T12:39:37;98145.84;;;26.33;57.25
18858;BME280;9558;50.178;8.370;2022-08-27T12:42:11;98137.34;;;26.36;57.99
18858;BME280;9558;50.178;8.370;2022-08-27T12:44:38;98139.47;;;26.34;57.52
18858;BME280;9558;50.178;8.370;2022-08-27T12:47:07;98137.88;;;26.33;57.71
18858;BME280;9558;50.178;8.370;2022-08-27T12:49:40;98138.91;;;26.37;58.21
18858;BME280;9558;50.178;8.370;2022-08-27T12:52:18;98140.81;;;26.32;57.74
18858;BME280;9558;50.178;8.370;2022-08-27T12:54:57;98133.22;;;26.20;57.89
18858;BME280;9558;50.178;8.370;2022-08-27T12:57:31;98132.09;;;26.26;57.99
18858;BME280;9558;50.178;8.370;2022-08-27T13:00:05;98137.09;;;26.33;58.56
18858;BME280;9558;50.178;8.370;2022-08-27T13:03:04;98133.38;;;26.34;57.96
18858;BME280;9558;50.178;8.370;2022-08-27T13:05:37;98137.84;;;26.38;57.84
18858;BME280;9558;50.178;8.370;2022-08-27T13:08:16;98132.63;;;26.28;57.11
18858;BME280;9558;50.178;8.370;2022-08-27T13:10:44;98131.06;;;26.22;56.90
18858;BME280;9558;50.178;8.370;2022-08-27T13:13:14;98130.56;;;26.20;57.64
18858;BME280;9558;50.178;8.370;2022-08-27T13:15:44;98124.75;;;26.18;57.69
18858;BME280;9558;50.178;8.370;2022-08-27T13:18:11;98135.09;;;26.19;57.95
18858;BME280;9558;50.178;8.370;2022-08-27T13:20:39;98126.38;;;26.14;58.31
18858;BME280;9558;50.178;8.370;2022-08-27T13:23:07;98124.03;;;26.07;58.08
18858;BME280;9558;50.178;8.370;2022-08-27T13:25:38;98128.59;;;25.96;58.26